CheckWX is a tool to help pilots better visualize weather data.  It is not intended as a substitute for an official pre-flight weather briefing.

21:47:20 UTC

KGGG METAR
East Texas Regional Airport
Longview, Texas, USA
Current

53 mins ago

KGGG 292054Z 33012KT 10SM OVC009 08/05 A3001 RMK AO2 T00830050
Observed
Jan-29 @ 20:54 UTC
Wind
  • 330° at 12 KTS
Visibility
10 SM
Flight Rules
IFR
Cloud Levels
  • Overcast at 900' AGL
Temperature
C / 46°F
Dewpoint
C / 41°F
Humidity
82%
Altimeter
30.01" Hg
Pressure
1016.22 hPa
Previous

2 hours ago

KGGG 291953Z 30012KT 10SM OVC008 08/04 A3002 RMK AO2 SLP168 T00780044
Observed
Jan-29 @ 19:53 UTC
Wind
  • 300° at 12 KTS
Visibility
10 SM
Flight Rules
IFR
Cloud Levels
  • Overcast at 800' AGL
Temperature
C / 46°F
Dewpoint
C / 39°F
Humidity
76%
Altimeter
30.02" Hg
Pressure
1016.62 hPa
Previous

3 hours ago

KGGG 291853Z 31008KT 10SM OVC007 08/05 A3002 RMK AO2 SLP169 T00780050
Observed
Jan-29 @ 18:53 UTC
Wind
  • 310° at 8 KTS
Visibility
10 SM
Flight Rules
IFR
Cloud Levels
  • Overcast at 700' AGL
Temperature
C / 46°F
Dewpoint
C / 41°F
Humidity
82%
Altimeter
30.02" Hg
Pressure
1016.62 hPa